createdAt,value
2023-06-19T00:00:57.268Z,495.00
2023-06-19T00:01:57.285Z,497.00
2023-06-19T00:02:57.335Z,497.00
2023-06-19T00:03:57.427Z,497.00
2023-06-19T00:04:57.345Z,496.00
2023-06-19T00:05:57.399Z,499.00
2023-06-19T00:06:57.417Z,498.00
2023-06-19T00:07:57.447Z,500.00
2023-06-19T00:08:57.437Z,501.00
2023-06-19T00:09:57.470Z,500.00
2023-06-19T00:10:57.499Z,499.00
2023-06-19T00:11:57.539Z,499.00
2023-06-19T00:12:57.533Z,499.00
2023-06-19T00:13:57.566Z,497.00
2023-06-19T00:14:57.603Z,496.00
2023-06-19T00:15:57.622Z,497.00
2023-06-19T00:16:57.578Z,497.00
2023-06-19T00:17:57.575Z,497.00
2023-06-19T00:18:57.547Z,498.00
2023-06-19T00:19:57.528Z,498.00
2023-06-19T00:20:57.566Z,499.00
2023-06-19T00:21:57.541Z,501.00
2023-06-19T00:22:57.536Z,500.00
2023-06-19T00:23:57.608Z,500.00
2023-06-19T00:24:57.578Z,502.00
2023-06-19T00:25:57.581Z,500.00
2023-06-19T00:26:57.573Z,501.00
2023-06-19T00:27:57.579Z,500.00
2023-06-19T00:28:57.554Z,500.00
2023-06-19T00:29:57.549Z,500.00
2023-06-19T00:30:57.581Z,500.00
2023-06-19T00:31:57.599Z,499.00
2023-06-19T00:32:57.627Z,500.00
2023-06-19T00:33:57.632Z,499.00
2023-06-19T00:34:57.697Z,499.00
2023-06-19T00:35:57.662Z,498.00
2023-06-19T00:36:57.688Z,497.00
2023-06-19T00:37:57.726Z,497.00
2023-06-19T00:38:57.729Z,498.00
2023-06-19T00:39:57.726Z,497.00
2023-06-19T00:40:57.719Z,496.00
2023-06-19T00:41:57.700Z,495.00
2023-06-19T00:42:57.674Z,497.00
2023-06-19T00:43:57.640Z,498.00
2023-06-19T00:44:57.595Z,497.00
2023-06-19T00:45:57.603Z,497.00
2023-06-19T00:46:58.968Z,495.00
2023-06-19T00:47:57.528Z,496.00
2023-06-19T00:48:57.420Z,498.00
2023-06-19T00:49:57.379Z,500.00
2023-06-19T00:50:57.353Z,500.00
2023-06-19T00:51:57.306Z,500.00
2023-06-19T00:52:57.278Z,499.00
2023-06-19T00:53:57.272Z,499.00
2023-06-19T00:54:57.160Z,500.00
2023-06-19T00:55:57.113Z,501.00
2023-06-19T00:56:57.088Z,502.00
2023-06-19T00:57:57.022Z,503.00
2023-06-19T00:58:56.984Z,507.00
2023-06-19T00:59:56.935Z,507.00
2023-06-19T01:01:08.033Z,505.00
2023-06-19T01:01:57.955Z,503.00
2023-06-19T01:02:57.003Z,502.00
2023-06-19T01:03:56.969Z,503.00
2023-06-19T01:04:56.763Z,504.00
2023-06-19T01:05:56.711Z,506.00
2023-06-19T01:06:56.673Z,507.00
2023-06-19T01:07:56.615Z,506.00
2023-06-19T01:08:56.620Z,506.00
2023-06-19T01:09:56.602Z,504.00
2023-06-19T01:10:56.540Z,505.00
2023-06-19T01:11:56.528Z,505.00
2023-06-19T01:12:56.516Z,505.00
2023-06-19T01:13:56.497Z,504.00
2023-06-19T01:14:56.500Z,506.00
2023-06-19T01:15:56.546Z,510.00
2023-06-19T01:16:56.573Z,511.00
2023-06-19T01:17:56.549Z,511.00
2023-06-19T01:18:56.487Z,512.00
2023-06-19T01:19:56.509Z,512.00
2023-06-19T01:20:56.533Z,513.00
2023-06-19T01:21:56.517Z,514.00
2023-06-19T01:22:56.462Z,514.00
2023-06-19T01:23:56.524Z,515.00
2023-06-19T01:24:56.504Z,514.00
2023-06-19T01:25:56.422Z,511.00
2023-06-19T01:26:56.459Z,513.00
2023-06-19T01:27:56.437Z,513.00
2023-06-19T01:28:56.439Z,514.00
2023-06-19T01:29:56.425Z,513.00
2023-06-19T01:30:56.429Z,513.00
2023-06-19T01:31:56.450Z,512.00
2023-06-19T01:32:56.435Z,512.00
2023-06-19T01:33:56.319Z,513.00
2023-06-19T01:34:56.314Z,514.00
2023-06-19T01:35:56.296Z,511.00
2023-06-19T01:36:56.277Z,513.00
2023-06-19T01:37:56.264Z,514.00
2023-06-19T01:38:56.206Z,515.00
2023-06-19T01:39:56.197Z,512.00
2023-06-19T01:40:56.136Z,514.00
2023-06-19T01:41:56.153Z,517.00
2023-06-19T01:42:56.136Z,519.00
2023-06-19T01:43:56.079Z,519.00
2023-06-19T01:44:56.033Z,518.00
2023-06-19T01:45:56.056Z,516.00
2023-06-19T01:46:56.050Z,517.00
2023-06-19T01:47:56.014Z,519.00
2023-06-19T01:48:55.967Z,523.00
2023-06-19T01:49:55.975Z,524.00
2023-06-19T01:50:55.970Z,521.00
2023-06-19T01:51:55.956Z,519.00
2023-06-19T01:52:55.955Z,517.00
2023-06-19T01:53:55.969Z,517.00
2023-06-19T01:54:55.926Z,515.00
2023-06-19T01:55:55.954Z,516.00
2023-06-19T01:56:55.908Z,516.00
2023-06-19T01:57:55.951Z,520.00
2023-06-19T01:58:55.981Z,519.00
2023-06-19T01:59:55.962Z,520.00
2023-06-19T02:00:55.958Z,517.00
2023-06-19T02:01:55.972Z,518.00
2023-06-19T02:02:56.071Z,517.00
2023-06-19T02:03:56.033Z,517.00
2023-06-19T02:04:56.002Z,519.00
2023-06-19T02:05:56.058Z,518.00
2023-06-19T02:06:56.063Z,517.00
2023-06-19T02:07:56.029Z,518.00
2023-06-19T02:08:56.066Z,518.00
2023-06-19T02:09:56.018Z,518.00
2023-06-19T02:10:56.044Z,519.00
2023-06-19T02:11:56.056Z,518.00
2023-06-19T02:12:56.068Z,516.00
2023-06-19T02:13:56.070Z,518.00
2023-06-19T02:14:56.107Z,516.00
2023-06-19T02:15:56.166Z,518.00
2023-06-19T02:16:56.165Z,519.00
2023-06-19T02:17:57.020Z,521.00
2023-06-19T02:18:56.165Z,519.00
2023-06-19T02:19:56.179Z,518.00
2023-06-19T02:20:56.174Z,516.00
2023-06-19T02:21:56.184Z,517.00
2023-06-19T02:22:56.147Z,519.00
2023-06-19T02:23:56.163Z,519.00
2023-06-19T02:24:56.145Z,519.00
2023-06-19T02:25:56.145Z,519.00
2023-06-19T02:26:56.149Z,518.00
2023-06-19T02:27:56.163Z,518.00
2023-06-19T02:28:56.218Z,519.00
2023-06-19T02:29:56.185Z,519.00
2023-06-19T02:30:56.191Z,520.00
2023-06-19T02:31:56.245Z,519.00
2023-06-19T02:32:56.222Z,521.00
2023-06-19T02:33:56.240Z,522.00
2023-06-19T02:34:56.283Z,525.00
2023-06-19T02:35:56.261Z,526.00
2023-06-19T02:36:56.329Z,528.00
2023-06-19T02:37:56.270Z,526.00
2023-06-19T02:38:56.315Z,528.00
2023-06-19T02:39:56.323Z,529.00
2023-06-19T02:40:56.367Z,528.00
2023-06-19T02:41:56.413Z,528.00
2023-06-19T02:42:56.448Z,528.00
2023-06-19T02:43:56.496Z,525.00
2023-06-19T02:44:56.588Z,521.00
2023-06-19T02:45:56.570Z,519.00
2023-06-19T02:46:56.541Z,523.00
2023-06-19T02:47:56.594Z,524.00
2023-06-19T02:48:56.566Z,523.00
2023-06-19T02:49:56.643Z,523.00
2023-06-19T02:50:56.652Z,525.00
2023-06-19T02:51:56.696Z,525.00
2023-06-19T02:52:56.682Z,527.00
2023-06-19T02:53:56.722Z,526.00
2023-06-19T02:54:56.749Z,526.00
2023-06-19T02:55:58.397Z,526.00
2023-06-19T02:56:56.821Z,523.00
2023-06-19T02:57:56.772Z,522.00
2023-06-19T02:58:56.823Z,522.00
2023-06-19T02:59:56.785Z,525.00
2023-06-19T03:00:56.807Z,525.00
2023-06-19T03:01:56.838Z,524.00
2023-06-19T03:02:56.893Z,524.00
2023-06-19T03:03:56.794Z,523.00
2023-06-19T03:04:56.861Z,524.00
2023-06-19T03:05:56.862Z,525.00
2023-06-19T03:06:56.946Z,526.00
2023-06-19T03:07:56.897Z,528.00
2023-06-19T03:08:56.811Z,529.00
2023-06-19T03:09:56.863Z,527.00
2023-06-19T03:10:56.875Z,527.00
2023-06-19T03:11:56.930Z,528.00
2023-06-19T03:12:56.941Z,528.00
2023-06-19T03:13:56.956Z,527.00
2023-06-19T03:14:56.959Z,523.00
2023-06-19T03:15:56.997Z,520.00
2023-06-19T03:16:57.116Z,524.00
2023-06-19T03:17:57.138Z,525.00
2023-06-19T03:18:57.099Z,528.00
2023-06-19T03:19:57.132Z,527.00
2023-06-19T03:20:57.154Z,528.00
2023-06-19T03:21:57.167Z,529.00
2023-06-19T03:22:57.187Z,527.00
2023-06-19T03:23:57.217Z,527.00
2023-06-19T03:24:57.154Z,525.00
2023-06-19T03:25:57.180Z,525.00
2023-06-19T03:26:57.219Z,523.00
2023-06-19T03:27:57.171Z,525.00
2023-06-19T03:28:57.203Z,528.00
2023-06-19T03:29:57.213Z,527.00
2023-06-19T03:30:57.214Z,525.00
2023-06-19T03:31:57.207Z,522.00
2023-06-19T03:32:57.238Z,521.00
2023-06-19T03:33:57.260Z,520.00
2023-06-19T03:34:57.234Z,523.00
2023-06-19T03:35:57.262Z,523.00
2023-06-19T03:36:57.299Z,521.00
2023-06-19T03:37:57.256Z,522.00
2023-06-19T03:38:57.220Z,522.00
2023-06-19T03:39:57.233Z,523.00
2023-06-19T03:40:57.302Z,522.00
2023-06-19T03:41:57.269Z,523.00
2023-06-19T03:42:57.295Z,524.00
2023-06-19T03:43:57.243Z,523.00
2023-06-19T03:44:57.223Z,523.00
2023-06-19T03:45:57.242Z,523.00
2023-06-19T03:46:57.194Z,524.00
2023-06-19T03:47:57.234Z,527.00
2023-06-19T03:48:57.202Z,529.00
2023-06-19T03:50:02.058Z,530.00
2023-06-19T03:50:58.159Z,530.00
2023-06-19T03:51:57.116Z,529.00
2023-06-19T03:52:57.116Z,528.00
2023-06-19T03:53:57.031Z,528.00
2023-06-19T03:54:56.990Z,531.00
2023-06-19T03:55:56.979Z,530.00
2023-06-19T03:56:56.959Z,528.00
2023-06-19T03:57:57.915Z,529.00
2023-06-19T04:00:12.477Z,531.00
2023-06-19T04:01:12.460Z,531.00
2023-06-19T04:02:12.449Z,531.00
2023-06-19T04:03:12.540Z,528.00
2023-06-19T04:04:12.447Z,527.00
2023-06-19T04:05:12.396Z,527.00
2023-06-19T04:06:12.400Z,528.00
2023-06-19T04:07:12.360Z,530.00
2023-06-19T04:08:12.329Z,531.00
2023-06-19T04:09:12.358Z,534.00
2023-06-19T04:10:12.335Z,532.00
2023-06-19T04:11:12.313Z,531.00
2023-06-19T04:12:14.207Z,533.00
2023-06-19T04:13:12.266Z,533.00
2023-06-19T04:14:12.276Z,530.00
2023-06-19T04:15:12.256Z,529.00
2023-06-19T04:16:12.293Z,528.00
2023-06-19T04:17:12.235Z,527.00
2023-06-19T04:18:12.234Z,526.00
2023-06-19T04:19:12.166Z,525.00
2023-06-19T04:20:12.761Z,525.00
2023-06-19T04:21:12.131Z,528.00
2023-06-19T04:22:12.138Z,527.00
2023-06-19T04:23:12.137Z,528.00
2023-06-19T04:24:12.196Z,529.00
2023-06-19T04:25:12.277Z,528.00
2023-06-19T04:26:12.216Z,526.00
2023-06-19T04:27:12.234Z,523.00
2023-06-19T04:28:12.281Z,522.00
2023-06-19T04:29:12.293Z,522.00
2023-06-19T04:30:12.361Z,523.00
2023-06-19T04:31:12.398Z,523.00
2023-06-19T04:32:12.544Z,523.00
2023-06-19T04:33:12.511Z,523.00
2023-06-19T04:34:12.487Z,522.00
2023-06-19T04:35:12.580Z,522.00
2023-06-19T04:36:12.544Z,522.00
2023-06-19T04:37:12.615Z,524.00
2023-06-19T04:38:12.637Z,524.00
2023-06-19T04:39:12.650Z,525.00
2023-06-19T04:40:12.704Z,524.00
2023-06-19T04:41:13.683Z,525.00
2023-06-19T04:42:12.784Z,523.00
2023-06-19T04:43:12.830Z,525.00
2023-06-19T04:44:12.851Z,523.00
2023-06-19T04:45:12.893Z,523.00
2023-06-19T04:46:12.932Z,526.00
2023-06-19T04:47:12.948Z,527.00
2023-06-19T04:48:13.035Z,525.00
2023-06-19T04:49:13.002Z,525.00
2023-06-19T04:50:13.058Z,523.00
2023-06-19T04:51:13.099Z,525.00
2023-06-19T04:52:13.148Z,526.00
2023-06-19T04:53:13.158Z,524.00
2023-06-19T04:54:13.211Z,522.00
2023-06-19T04:55:13.226Z,522.00
2023-06-19T04:56:13.286Z,522.00
2023-06-19T04:57:13.307Z,522.00
2023-06-19T04:58:13.301Z,521.00
2023-06-19T04:59:13.324Z,520.00
2023-06-19T05:00:13.370Z,522.00
2023-06-19T05:01:13.454Z,523.00
2023-06-19T05:02:13.462Z,524.00
2023-06-19T05:03:13.477Z,521.00
2023-06-19T05:04:13.553Z,518.00
2023-06-19T05:05:13.566Z,520.00
2023-06-19T05:06:13.588Z,522.00
2023-06-19T05:07:13.593Z,522.00
2023-06-19T05:08:13.592Z,521.00
2023-06-19T05:09:13.677Z,522.00
2023-06-19T05:10:13.701Z,521.00
2023-06-19T05:11:13.737Z,520.00
2023-06-19T05:12:13.768Z,522.00
2023-06-19T05:13:13.870Z,523.00
2023-06-19T05:14:13.834Z,522.00
2023-06-19T05:15:13.896Z,521.00
2023-06-19T05:16:13.991Z,522.00
2023-06-19T05:17:14.002Z,522.00
2023-06-19T05:18:14.032Z,521.00
2023-06-19T05:19:14.067Z,522.00
2023-06-19T05:20:14.078Z,523.00
2023-06-19T05:21:14.115Z,525.00
2023-06-19T05:22:14.249Z,523.00
2023-06-19T05:23:14.195Z,520.00
2023-06-19T05:24:14.281Z,517.00
2023-06-19T05:25:14.318Z,515.00
2023-06-19T05:26:14.358Z,514.00
2023-06-19T05:27:14.401Z,514.00
2023-06-19T05:28:14.428Z,513.00
2023-06-19T05:29:14.504Z,514.00
2023-06-19T05:30:14.526Z,515.00
2023-06-19T05:31:14.600Z,516.00
2023-06-19T05:32:14.653Z,517.00
2023-06-19T05:33:14.693Z,520.00
2023-06-19T05:34:14.707Z,535.00
2023-06-19T05:35:16.401Z,565.00
2023-06-19T05:36:14.676Z,583.00
2023-06-19T05:37:14.754Z,583.00
2023-06-19T05:38:14.780Z,581.00
2023-06-19T05:39:14.804Z,583.00
2023-06-19T05:40:14.860Z,593.00
2023-06-19T05:41:14.984Z,602.00
2023-06-19T05:42:14.997Z,611.00
2023-06-19T05:43:15.054Z,577.00
2023-06-19T05:44:15.104Z,561.00
2023-06-19T05:45:15.120Z,568.00
2023-06-19T05:46:15.253Z,579.00
2023-06-19T05:47:15.228Z,587.00
2023-06-19T05:48:15.283Z,598.00
2023-06-19T05:49:15.351Z,618.00
2023-06-19T05:50:15.368Z,631.00
2023-06-19T05:51:15.452Z,674.00
2023-06-19T05:52:15.478Z,702.00
2023-06-19T05:53:15.906Z,724.00
2023-06-19T05:54:15.539Z,727.00
2023-06-19T05:55:15.590Z,732.00
2023-06-19T05:56:15.625Z,648.00
2023-06-19T05:57:15.716Z,688.00
2023-06-19T05:58:15.720Z,681.00
2023-06-19T05:59:15.801Z,682.00
2023-06-19T06:00:15.772Z,687.00
2023-06-19T06:01:15.920Z,705.00
2023-06-19T06:02:15.886Z,714.00
2023-06-19T06:03:16.031Z,732.00
2023-06-19T06:04:16.059Z,740.00
2023-06-19T06:05:16.018Z,743.00
2023-06-19T06:06:16.061Z,757.00
2023-06-19T06:07:16.122Z,768.00
2023-06-19T06:08:16.159Z,765.00
2023-06-19T06:09:16.184Z,765.00
2023-06-19T06:10:16.204Z,763.00
2023-06-19T06:11:16.269Z,766.00
2023-06-19T06:12:16.314Z,769.00
2023-06-19T06:13:16.375Z,770.00
2023-06-19T06:14:16.387Z,770.00
2023-06-19T06:15:16.512Z,779.00
2023-06-19T06:16:16.583Z,776.00
2023-06-19T06:17:16.549Z,761.00
2023-06-19T06:18:16.565Z,739.00
2023-06-19T06:19:16.602Z,719.00
2023-06-19T06:20:16.657Z,709.00
2023-06-19T06:21:16.716Z,723.00
2023-06-19T06:22:16.720Z,767.00
2023-06-19T06:23:16.764Z,745.00
2023-06-19T06:24:16.856Z,730.00
2023-06-19T06:25:16.822Z,724.00
2023-06-19T06:26:16.852Z,725.00
2023-06-19T06:27:16.862Z,727.00
2023-06-19T06:28:16.896Z,729.00
2023-06-19T06:29:16.943Z,730.00
2023-06-19T06:30:19.209Z,732.00
2023-06-19T06:31:16.948Z,732.00
2023-06-19T06:32:16.935Z,732.00
2023-06-19T06:33:16.895Z,729.00
2023-06-19T06:34:16.867Z,730.00
2023-06-19T06:35:16.863Z,732.00
2023-06-19T06:36:25.683Z,742.00
2023-06-19T06:37:17.856Z,801.00
2023-06-19T06:38:16.800Z,793.00
2023-06-19T06:39:16.792Z,779.00
2023-06-19T06:40:16.757Z,774.00
2023-06-19T06:41:16.745Z,777.00
2023-06-19T06:42:16.713Z,797.00
2023-06-19T06:43:16.726Z,796.00
2023-06-19T06:44:16.714Z,795.00
2023-06-19T06:45:16.686Z,790.00
2023-06-19T06:46:16.796Z,800.00
2023-06-19T06:47:16.670Z,847.00
2023-06-19T06:48:16.658Z,869.00
2023-06-19T06:49:16.729Z,879.00
2023-06-19T06:50:16.820Z,881.00
2023-06-19T06:51:16.877Z,878.00
2023-06-19T06:52:16.892Z,893.00
2023-06-19T06:53:16.903Z,890.00
2023-06-19T06:54:16.958Z,873.00
2023-06-19T06:55:17.011Z,855.00
2023-06-19T06:56:17.024Z,840.00
2023-06-19T06:57:18.621Z,833.00
2023-06-19T06:58:17.108Z,836.00
2023-06-19T06:59:17.160Z,837.00
2023-06-19T07:00:17.181Z,838.00
2023-06-19T07:01:17.298Z,844.00
2023-06-19T07:02:17.323Z,846.00
2023-06-19T07:03:17.456Z,844.00
2023-06-19T07:04:17.346Z,844.00
2023-06-19T07:05:17.477Z,847.00
2023-06-19T07:06:17.443Z,848.00
2023-06-19T07:07:17.481Z,845.00
2023-06-19T07:08:17.527Z,844.00
2023-06-19T07:09:17.584Z,840.00
2023-06-19T07:10:17.615Z,833.00
2023-06-19T07:11:17.607Z,825.00
2023-06-19T07:12:17.710Z,820.00
2023-06-19T07:13:17.720Z,817.00
2023-06-19T07:14:17.741Z,816.00
2023-06-19T07:15:17.805Z,815.00
2023-06-19T07:16:17.860Z,811.00
2023-06-19T07:17:19.716Z,806.00
2023-06-19T07:18:17.876Z,799.00
2023-06-19T07:19:17.868Z,795.00
2023-06-19T07:20:19.773Z,794.00
2023-06-19T07:21:17.790Z,786.00
2023-06-19T07:22:17.760Z,780.00
2023-06-19T07:23:17.742Z,770.00
2023-06-19T07:24:17.782Z,768.00
2023-06-19T07:25:17.725Z,766.00
2023-06-19T07:26:17.724Z,760.00
2023-06-19T07:27:17.736Z,758.00
2023-06-19T07:28:17.702Z,756.00
2023-06-19T07:29:17.660Z,753.00
2023-06-19T07:30:17.808Z,751.00
2023-06-19T07:31:17.788Z,748.00
2023-06-19T07:32:17.834Z,745.00
2023-06-19T07:33:17.884Z,746.00
2023-06-19T07:34:17.930Z,745.00
2023-06-19T07:35:17.968Z,746.00
2023-06-19T07:36:17.992Z,746.00
2023-06-19T07:37:18.053Z,747.00
2023-06-19T07:38:18.138Z,746.00
2023-06-19T07:39:18.164Z,747.00
2023-06-19T07:40:18.219Z,751.00
2023-06-19T07:41:18.253Z,818.00
2023-06-19T07:42:18.284Z,865.00
2023-06-19T07:43:18.310Z,856.00
2023-06-19T07:44:19.269Z,843.00
2023-06-19T07:45:18.369Z,800.00
2023-06-19T07:46:18.378Z,825.00
2023-06-19T07:47:18.353Z,893.00
2023-06-19T07:48:18.377Z,879.00
2023-06-19T07:49:18.445Z,868.00
2023-06-19T07:50:18.399Z,868.00
2023-06-19T07:51:18.399Z,858.00
2023-06-19T07:52:18.456Z,851.00
2023-06-19T07:53:18.457Z,846.00
2023-06-19T07:54:18.479Z,842.00
2023-06-19T07:55:18.501Z,846.00
2023-06-19T07:56:18.528Z,849.00
2023-06-19T07:57:18.543Z,852.00
2023-06-19T07:58:18.539Z,863.00
2023-06-19T07:59:18.546Z,869.00
2023-06-19T08:00:18.582Z,874.00
2023-06-19T08:01:18.563Z,876.00
2023-06-19T08:02:18.633Z,882.00
2023-06-19T08:03:18.672Z,883.00
2023-06-19T08:04:18.652Z,887.00
2023-06-19T08:05:18.718Z,891.00
2023-06-19T08:06:18.629Z,887.00
2023-06-19T08:07:18.659Z,883.00
2023-06-19T08:08:18.678Z,869.00
2023-06-19T08:09:18.678Z,845.00
2023-06-19T08:10:18.651Z,834.00
2023-06-19T08:11:18.680Z,822.00
2023-06-19T08:12:18.687Z,818.00
2023-06-19T08:13:18.701Z,820.00
2023-06-19T08:14:18.744Z,822.00
2023-06-19T08:15:18.720Z,816.00
2023-06-19T08:16:18.769Z,812.00
2023-06-19T08:17:19.106Z,802.00
2023-06-19T08:18:18.785Z,793.00
2023-06-19T08:19:18.841Z,792.00
2023-06-19T08:20:18.856Z,797.00
2023-06-19T08:21:18.877Z,805.00
2023-06-19T08:22:18.884Z,810.00
2023-06-19T08:23:18.884Z,817.00
2023-06-19T08:24:18.939Z,823.00
2023-06-19T08:25:19.018Z,825.00
2023-06-19T08:26:18.957Z,826.00
2023-06-19T08:27:18.981Z,824.00
2023-06-19T08:28:18.956Z,819.00
2023-06-19T08:29:19.029Z,807.00
2023-06-19T08:30:19.028Z,802.00
2023-06-19T08:31:19.031Z,792.00
2023-06-19T08:32:19.115Z,785.00
2023-06-19T08:33:19.095Z,770.00
2023-06-19T08:34:19.113Z,741.00
2023-06-19T08:35:19.137Z,723.00
2023-06-19T08:36:19.799Z,724.00
2023-06-19T08:37:19.151Z,748.00
2023-06-19T08:38:19.180Z,784.00
2023-06-19T08:39:19.203Z,811.00
2023-06-19T08:40:19.227Z,905.00
2023-06-19T08:41:19.292Z,907.00
2023-06-19T08:42:19.283Z,904.00
2023-06-19T08:43:19.247Z,906.00
2023-06-19T08:44:19.241Z,925.00
2023-06-19T08:45:19.244Z,956.00
2023-06-19T08:46:19.361Z,966.00
2023-06-19T08:47:19.282Z,976.00
2023-06-19T08:48:19.268Z,979.00
2023-06-19T08:49:19.251Z,978.00
2023-06-19T08:50:19.282Z,975.00
2023-06-19T08:51:19.271Z,970.00
2023-06-19T08:52:19.256Z,964.00
2023-06-19T08:53:19.276Z,967.00
2023-06-19T08:54:19.372Z,977.00
2023-06-19T08:55:19.261Z,1019.00
2023-06-19T08:56:19.259Z,1064.00
2023-06-19T08:57:19.437Z,1078.00
2023-06-19T08:58:19.264Z,1077.00
2023-06-19T08:59:19.263Z,1070.00
2023-06-19T09:00:19.219Z,1065.00
2023-06-19T09:01:19.233Z,1055.00
2023-06-19T09:02:19.274Z,1041.00
2023-06-19T09:03:19.267Z,1028.00
2023-06-19T09:04:19.365Z,1020.00
2023-06-19T09:05:19.198Z,1008.00
2023-06-19T09:06:19.193Z,996.00
2023-06-19T09:07:19.287Z,984.00
2023-06-19T09:08:19.157Z,968.00
2023-06-19T09:09:19.138Z,955.00
2023-06-19T09:10:19.127Z,943.00
2023-06-19T09:11:19.125Z,932.00
2023-06-19T09:12:19.245Z,931.00
2023-06-19T09:13:19.078Z,936.00
2023-06-19T09:14:19.087Z,943.00
2023-06-19T09:15:19.096Z,946.00
2023-06-19T09:16:19.085Z,944.00
2023-06-19T09:17:19.091Z,943.00
2023-06-19T09:18:19.064Z,938.00
2023-06-19T09:19:19.013Z,924.00
2023-06-19T09:20:18.994Z,915.00
2023-06-19T09:21:19.060Z,911.00
2023-06-19T09:22:18.960Z,911.00
2023-06-19T09:23:18.962Z,911.00
2023-06-19T09:24:18.977Z,909.00
2023-06-19T09:25:18.919Z,905.00
2023-06-19T09:26:18.982Z,900.00
2023-06-19T09:27:18.927Z,899.00
2023-06-19T09:28:18.918Z,895.00
2023-06-19T09:29:21.262Z,890.00
2023-06-19T09:30:18.874Z,887.00
2023-06-19T09:31:18.838Z,888.00
2023-06-19T09:32:18.861Z,891.00
2023-06-19T09:33:18.944Z,890.00
2023-06-19T09:34:18.907Z,885.00
2023-06-19T09:35:18.774Z,880.00
2023-06-19T09:36:18.751Z,873.00
2023-06-19T09:37:18.705Z,870.00
2023-06-19T09:38:18.725Z,869.00
2023-06-19T09:39:18.719Z,868.00
2023-06-19T09:40:18.736Z,876.00
2023-06-19T09:41:18.664Z,943.00
2023-06-19T09:42:18.665Z,955.00
2023-06-19T09:43:18.634Z,973.00
2023-06-19T09:44:18.601Z,991.00
2023-06-19T09:45:18.597Z,1017.00
2023-06-19T09:46:18.546Z,1012.00
2023-06-19T09:47:18.587Z,1002.00
2023-06-19T09:48:18.599Z,1000.00
2023-06-19T09:49:18.515Z,1041.00
2023-06-19T09:50:21.382Z,1058.00
2023-06-19T09:51:18.444Z,1042.00
2023-06-19T09:52:18.448Z,1026.00
2023-06-19T09:53:18.531Z,1022.00
2023-06-19T09:54:18.558Z,1014.00
2023-06-19T09:55:18.396Z,1000.00
2023-06-19T09:56:18.419Z,1012.00
2023-06-19T09:57:18.345Z,1021.00
2023-06-19T09:58:18.307Z,1025.00
2023-06-19T09:59:18.304Z,1023.00
2023-06-19T10:00:18.305Z,1023.00
2023-06-19T10:01:18.537Z,1024.00
2023-06-19T10:02:18.294Z,1028.00
2023-06-19T10:03:18.462Z,1035.00
2023-06-19T10:04:18.232Z,1040.00
2023-06-19T10:05:18.248Z,1051.00
2023-06-19T10:06:18.180Z,1058.00
2023-06-19T10:07:18.155Z,1066.00
2023-06-19T10:08:18.150Z,1071.00
2023-06-19T10:09:18.113Z,1070.00
2023-06-19T10:10:18.098Z,1056.00
2023-06-19T10:11:18.093Z,999.00
2023-06-19T10:12:18.063Z,996.00
2023-06-19T10:13:18.092Z,998.00
2023-06-19T10:14:18.047Z,1010.00
2023-06-19T10:15:18.113Z,1011.00
2023-06-19T10:16:18.118Z,1023.00
2023-06-19T10:17:18.023Z,1023.00
2023-06-19T10:18:18.065Z,1044.00
2023-06-19T10:19:17.963Z,1090.00
2023-06-19T10:20:17.948Z,1023.00
2023-06-19T10:21:17.923Z,996.00
2023-06-19T10:22:17.943Z,1005.00
2023-06-19T10:23:20.436Z,997.00
2023-06-19T10:24:17.891Z,989.00
2023-06-19T10:25:17.851Z,989.00
2023-06-19T10:26:17.820Z,980.00
2023-06-19T10:27:17.830Z,976.00
2023-06-19T10:28:17.782Z,971.00
2023-06-19T10:29:17.762Z,961.00
2023-06-19T10:30:17.799Z,951.00
2023-06-19T10:31:17.733Z,951.00
2023-06-19T10:32:17.701Z,963.00
2023-06-19T10:33:17.705Z,974.00
2023-06-19T10:34:17.653Z,971.00
2023-06-19T10:35:17.676Z,951.00
2023-06-19T10:36:17.671Z,917.00
2023-06-19T10:37:17.610Z,928.00
2023-06-19T10:38:17.668Z,996.00
2023-06-19T10:39:17.570Z,1018.00
2023-06-19T10:40:17.653Z,1018.00
2023-06-19T10:41:17.569Z,1008.00
2023-06-19T10:42:17.542Z,985.00
2023-06-19T10:43:17.520Z,978.00
2023-06-19T10:44:17.475Z,978.00
2023-06-19T10:45:17.501Z,977.00
2023-06-19T10:46:17.526Z,970.00
2023-06-19T10:47:17.446Z,963.00
2023-06-19T10:48:17.426Z,944.00
2023-06-19T10:49:17.386Z,930.00
2023-06-19T10:50:17.387Z,913.00
2023-06-19T10:51:17.363Z,898.00
2023-06-19T10:52:17.340Z,888.00
2023-06-19T10:53:17.323Z,867.00
2023-06-19T10:54:17.283Z,846.00
2023-06-19T10:55:17.237Z,836.00
2023-06-19T10:56:17.260Z,832.00
2023-06-19T10:57:17.202Z,826.00
2023-06-19T10:58:17.203Z,831.00
2023-06-19T10:59:17.191Z,845.00
2023-06-19T11:00:17.159Z,852.00
2023-06-19T11:01:17.136Z,837.00
2023-06-19T11:02:17.142Z,817.00
2023-06-19T11:03:17.209Z,803.00
2023-06-19T11:04:17.129Z,817.00
2023-06-19T11:05:17.131Z,828.00
2023-06-19T11:06:17.183Z,821.00
2023-06-19T11:07:17.211Z,792.00
2023-06-19T11:08:17.277Z,787.00
2023-06-19T11:09:17.281Z,783.00
2023-06-19T11:10:17.346Z,773.00
2023-06-19T11:11:17.370Z,776.00
2023-06-19T11:12:17.397Z,818.00
2023-06-19T11:13:17.461Z,832.00
2023-06-19T11:14:17.532Z,837.00
2023-06-19T11:15:17.548Z,847.00
2023-06-19T11:16:17.672Z,857.00
2023-06-19T11:17:17.799Z,858.00
2023-06-19T11:18:17.642Z,835.00
2023-06-19T11:19:17.711Z,796.00
2023-06-19T11:20:17.745Z,689.00
2023-06-19T11:21:17.804Z,652.00
2023-06-19T11:22:17.826Z,649.00
2023-06-19T11:23:17.826Z,748.00
2023-06-19T11:24:17.931Z,777.00
2023-06-19T11:25:17.883Z,674.00
2023-06-19T11:26:17.910Z,664.00
2023-06-19T11:27:17.964Z,656.00
2023-06-19T11:28:18.001Z,650.00
2023-06-19T11:29:18.048Z,647.00
2023-06-19T11:30:18.092Z,647.00
2023-06-19T11:31:18.165Z,649.00
2023-06-19T11:32:18.201Z,717.00
2023-06-19T11:33:18.157Z,738.00
2023-06-19T11:34:19.095Z,757.00
2023-06-19T11:35:18.211Z,757.00
2023-06-19T11:36:18.199Z,762.00
2023-06-19T11:37:18.225Z,769.00
2023-06-19T11:38:18.278Z,764.00
2023-06-19T11:39:18.310Z,709.00
2023-06-19T11:40:18.317Z,708.00
2023-06-19T11:41:18.358Z,701.00
2023-06-19T11:42:18.405Z,699.00
2023-06-19T11:43:18.429Z,691.00
2023-06-19T11:44:18.410Z,694.00
2023-06-19T11:45:18.455Z,694.00
2023-06-19T11:46:18.485Z,700.00
2023-06-19T11:47:18.477Z,690.00
2023-06-19T11:48:18.467Z,682.00
2023-06-19T11:49:18.516Z,678.00
2023-06-19T11:50:18.574Z,671.00
2023-06-19T11:51:18.631Z,668.00
2023-06-19T11:52:18.594Z,665.00
2023-06-19T11:53:18.932Z,671.00
2023-06-19T11:54:18.670Z,672.00
2023-06-19T11:55:18.719Z,669.00
2023-06-19T11:56:18.717Z,670.00
2023-06-19T11:57:18.739Z,667.00
2023-06-19T11:58:18.753Z,660.00
2023-06-19T11:59:18.810Z,652.00
2023-06-19T12:00:18.885Z,652.00
2023-06-19T12:01:18.853Z,649.00
2023-06-19T12:02:18.940Z,652.00
2023-06-19T12:03:19.039Z,653.00
2023-06-19T12:04:19.208Z,657.00
2023-06-19T12:05:18.982Z,666.00
2023-06-19T12:06:18.970Z,672.00
2023-06-19T12:07:19.028Z,676.00
2023-06-19T12:08:19.023Z,676.00
2023-06-19T12:09:19.057Z,677.00
2023-06-19T12:10:19.071Z,678.00
2023-06-19T12:11:19.099Z,677.00
2023-06-19T12:12:19.156Z,670.00
2023-06-19T12:13:19.199Z,668.00
2023-06-19T12:14:19.197Z,665.00
2023-06-19T12:15:19.211Z,663.00
2023-06-19T12:16:19.289Z,662.00
2023-06-19T12:17:19.279Z,656.00
2023-06-19T12:18:19.337Z,648.00
2023-06-19T12:19:21.022Z,640.00
2023-06-19T12:20:19.363Z,636.00
2023-06-19T12:21:34.342Z,630.00
2023-06-19T12:22:20.375Z,622.00
2023-06-19T12:23:19.352Z,619.00
2023-06-19T12:24:19.384Z,615.00
2023-06-19T12:25:19.868Z,623.00
2023-06-19T12:26:19.354Z,632.00
2023-06-19T12:27:19.310Z,640.00
2023-06-19T12:28:19.363Z,647.00
2023-06-19T12:29:19.346Z,647.00